Time;durP1;ratioP1;P1;durP2;ratioP2;P2;SDS_P1;SDS_P2;PMS_P1;PMS_P2;Temp;Humidity;BMP_temperature;BMP_pressure;BME280_temperature;BME280_humidity;BME280_pressure;Samples;Min_cycle;Max_cycle;Signal;HPM_P1;HPM_P2
2022/11/25 00:01:22;;;;;;;45.47;28.30;;;5.80;96.50;;;;;;5065441;28;20288;-64
2022/11/25 00:03:51;;;;;;;46.17;30.27;;;5.80;96.40;;;;;;5062869;28;20663;-64
2022/11/25 00:06:30;;;;;;;49.07;32.77;;;5.80;96.20;;;;;;5059034;28;20589;-64
2022/11/25 00:09:01;;;;;;;56.13;35.00;;;5.80;96.20;;;;;;5060812;28;20217;-64
2022/11/25 00:11:28;;;;;;;42.83;30.07;;;5.80;96.30;;;;;;5060877;28;20245;-64
2022/11/25 00:13:56;;;;;;;47.77;32.50;;;5.80;96.30;;;;;;5061118;28;20647;-64
2022/11/25 00:16:25;;;;;;;44.83;30.43;;;5.90;96.30;;;;;;5062916;28;20657;-64
2022/11/25 00:18:54;;;;;;;42.47;29.20;;;5.90;96.20;;;;;;5059268;28;20205;-64
2022/11/25 00:21:23;;;;;;;52.83;33.40;;;5.90;96.20;;;;;;5063298;28;20243;-64
2022/11/25 00:24:02;;;;;;;40.37;28.47;;;5.90;96.20;;;;;;5063895;28;20274;-64
2022/11/25 00:26:31;;;;;;;42.43;27.13;;;5.90;96.30;;;;;;5064380;28;20199;-64
2022/11/25 00:29:01;;;;;;;42.23;27.83;;;5.90;96.40;;;;;;5058395;28;20222;-64
2022/11/25 00:31:31;;;;;;;39.03;27.33;;;5.90;96.30;;;;;;5054087;28;20274;-64
2022/11/25 00:33:58;;;;;;;40.13;26.50;;;5.90;96.10;;;;;;5056515;28;20191;-64
2022/11/25 00:36:31;;;;;;;38.30;27.10;;;5.80;96.10;;;;;;5061123;28;20217;-64
2022/11/25 00:39:13;;;;;;;42.53;27.00;;;5.80;96.20;;;;;;5073830;28;20223;-64
2022/11/25 00:44:39;;;;;;;35.33;25.87;;;5.70;96.20;;;;;;5065757;28;20217;-64
2022/11/25 00:47:11;;;;;;;44.57;27.83;;;5.70;96.30;;;;;;5066179;28;20229;-64
2022/11/25 00:49:40;;;;;;;44.33;27.33;;;5.70;96.30;;;;;;5065497;28;20213;-64
2022/11/25 00:52:09;;;;;;;39.27;28.93;;;5.70;96.30;;;;;;5064911;28;20209;-64
2022/11/25 00:54:36;;;;;;;36.57;26.13;;;5.70;96.40;;;;;;5063095;28;20198;-64
2022/11/25 00:57:04;;;;;;;38.00;25.63;;;5.80;96.50;;;;;;5062878;28;20208;-64
2022/11/25 00:59:31;;;;;;;32.23;22.83;;;5.80;96.50;;;;;;5072312;28;20216;-64
2022/11/25 01:01:58;;;;;;;35.03;27.03;;;5.80;96.40;;;;;;5063087;28;20206;-64
2022/11/25 01:04:26;;;;;;;41.43;28.00;;;5.70;96.30;;;;;;5069068;28;20296;-64
2022/11/25 01:06:55;;;;;;;43.23;27.83;;;5.70;96.30;;;;;;5062045;28;20201;-64
2022/11/25 01:09:23;;;;;;;41.37;28.17;;;5.70;96.40;;;;;;5065514;28;20237;-64
2022/11/25 01:11:50;;;;;;;35.47;25.03;;;5.70;96.40;;;;;;5069665;28;20206;-64
2022/11/25 01:14:19;;;;;;;36.80;26.13;;;5.70;96.50;;;;;;5067798;28;20628;-64
2022/11/25 01:16:47;;;;;;;40.33;27.87;;;5.80;96.50;;;;;;5065396;28;20205;-64
2022/11/25 01:19:15;;;;;;;43.13;28.03;;;5.80;96.50;;;;;;5067042;28;20204;-64
2022/11/25 01:21:42;;;;;;;38.10;26.97;;;5.80;96.50;;;;;;5071035;28;20291;-64
2022/11/25 01:24:13;;;;;;;37.80;26.70;;;5.80;96.50;;;;;;5062995;28;20202;-64
2022/11/25 01:26:41;;;;;;;35.80;24.73;;;5.80;96.60;;;;;;5064698;28;20249;-64
2022/11/25 01:29:14;;;;;;;40.43;26.50;;;5.80;96.60;;;;;;5068324;28;20615;-64
2022/11/25 01:31:41;;;;;;;44.20;28.43;;;5.80;96.50;;;;;;5061807;28;20205;-64
2022/11/25 01:34:13;;;;;;;45.40;28.90;;;5.80;96.40;;;;;;5062636;28;20620;-64
2022/11/25 01:36:40;;;;;;;40.13;28.50;;;5.80;96.40;;;;;;5066206;28;20205;-64
2022/11/25 01:39:12;;;;;;;41.40;27.63;;;5.80;96.40;;;;;;5070763;28;20227;-64
2022/11/25 01:41:39;;;;;;;43.13;28.47;;;5.80;96.40;;;;;;5067110;28;20289;-64
2022/11/25 01:44:15;;;;;;;42.17;28.83;;;5.80;96.40;;;;;;5067150;28;20206;-64
2022/11/25 01:47:01;;;;;;;37.57;25.60;;;5.80;96.40;;;;;;5061821;28;20284;-64
2022/11/25 01:49:53;;;;;;;36.07;26.07;;;5.70;96.40;;;;;;5070864;28;20659;-64
2022/11/25 01:52:31;;;;;;;40.03;28.30;;;5.70;96.40;;;;;;5065302;28;20221;-64
2022/11/25 01:55:05;;;;;;;48.97;31.10;;;5.70;96.40;;;;;;5063448;28;20214;-64
2022/11/25 01:57:55;;;;;;;47.93;30.97;;;5.70;96.40;;;;;;5066748;28;20587;-64
2022/11/25 02:00:24;;;;;;;37.60;26.57;;;5.70;96.50;;;;;;5066457;28;20648;-64
2022/11/25 02:02:53;;;;;;;42.50;27.93;;;5.70;96.60;;;;;;5070171;28;20213;-64
2022/11/25 02:06:02;;;;;;;40.70;27.03;;;5.70;96.60;;;;;;5064428;28;20676;-64
2022/11/25 02:08:31;;;;;;;49.27;31.00;;;5.70;96.60;;;;;;5064156;28;20212;-64
2022/11/25 02:11:00;;;;;;;48.07;32.20;;;5.70;96.60;;;;;;5064796;28;20247;-64
2022/11/25 02:13:28;;;;;;;52.93;31.53;;;5.80;96.70;;;;;;5064233;28;20636;-64
2022/11/25 02:15:55;;;;;;;55.17;33.53;;;5.80;96.70;;;;;;5062399;28;20210;-64
2022/11/25 02:18:25;;;;;;;60.83;35.03;;;5.80;96.70;;;;;;5069557;28;20207;-64
2022/11/25 02:20:52;;;;;;;61.03;35.97;;;5.80;96.80;;;;;;5070685;28;20263;-64
2022/11/25 02:24:07;;;;;;;52.53;33.27;;;5.90;96.80;;;;;;5066058;28;20234;-64
2022/11/25 02:26:34;;;;;;;44.57;30.47;;;5.90;96.80;;;;;;5060602;28;20206;-64
2022/11/25 02:29:01;;;;;;;48.90;32.90;;;5.90;96.80;;;;;;5067970;28;20233;-64
2022/11/25 02:31:29;;;;;;;47.57;31.87;;;5.90;96.70;;;;;;5066580;28;20205;-64
2022/11/25 02:33:56;;;;;;;41.67;28.60;;;5.90;96.50;;;;;;5062696;28;20671;-64
2022/11/25 02:36:23;;;;;;;46.40;29.40;;;5.90;96.40;;;;;;5069039;28;20200;-64
2022/11/25 02:38:59;;;;;;;41.07;29.40;;;5.80;96.40;;;;;;5069818;28;20202;-64
2022/11/25 02:41:44;;;;;;;49.27;32.67;;;5.80;96.60;;;;;;5062396;28;20216;-64
2022/11/25 02:44:11;;;;;;;53.77;31.67;;;5.80;96.70;;;;;;5072042;28;20288;-64
2022/11/25 02:46:38;;;;;;;43.50;29.97;;;5.80;96.70;;;;;;5063939;28;20198;-64
2022/11/25 02:49:06;;;;;;;44.57;30.27;;;5.80;96.80;;;;;;5068759;28;20227;-64
2022/11/25 02:51:37;;;;;;;46.43;31.43;;;5.80;96.90;;;;;;5063044;28;20660;-64
2022/11/25 02:54:05;;;;;;;65.53;33.30;;;5.80;96.90;;;;;;5071417;28;20618;-64
2022/11/25 02:56:34;;;;;;;44.10;30.63;;;5.90;97.00;;;;;;5062616;28;20639;-64
2022/11/25 02:59:02;;;;;;;48.10;30.40;;;5.90;97.00;;;;;;5066081;28;20206;-64
2022/11/25 03:01:30;;;;;;;76.20;30.90;;;5.90;97.10;;;;;;5076025;28;20620;-64
2022/11/25 03:03:58;;;;;;;55.70;31.20;;;6.00;97.10;;;;;;5077507;28;20292;-64
2022/11/25 03:06:27;;;;;;;59.80;30.97;;;6.00;97.10;;;;;;5061457;28;20214;-64
2022/11/25 03:08:55;;;;;;;55.27;31.30;;;6.00;97.10;;;;;;5061944;28;20216;-64
2022/11/25 03:12:17;;;;;;;111.13;30.13;;;6.00;97.10;;;;;;5062144;28;20793;-64
2022/11/25 03:14:13;;;;;;;41.33;27.50;;;6.00;97.00;;;;;;5069416;28;20608;-64
2022/11/25 03:16:41;;;;;;;40.17;29.23;;;6.00;97.10;;;;;;5066940;28;20208;-64
2022/11/25 03:19:09;;;;;;;39.43;27.73;;;6.00;97.20;;;;;;5066730;28;20210;-63
2022/11/25 03:21:36;;;;;;;47.40;28.40;;;6.00;97.20;;;;;;5064820;28;20215;-64
2022/11/25 03:24:04;;;;;;;42.43;25.13;;;6.00;97.30;;;;;;5061684;28;20267;-64
2022/11/25 03:26:31;;;;;;;61.07;32.33;;;6.10;97.20;;;;;;5061779;28;20212;-64
2022/11/25 03:28:58;;;;;;;48.13;28.70;;;6.10;97.30;;;;;;5063823;28;20234;-64
2022/11/25 03:31:26;;;;;;;89.60;27.70;;;6.10;97.30;;;;;;5067180;28;20278;-64
2022/11/25 03:33:54;;;;;;;78.80;26.73;;;6.00;97.20;;;;;;5063338;28;20201;-64
2022/11/25 03:36:21;;;;;;;66.33;26.47;;;6.00;97.10;;;;;;5063279;28;20197;-64
2022/11/25 03:38:48;;;;;;;77.27;28.90;;;6.00;97.10;;;;;;5061138;28;20219;-64
2022/11/25 03:41:16;;;;;;;62.10;27.13;;;6.00;97.10;;;;;;5071700;28;20262;-64
2022/11/25 03:43:44;;;;;;;71.77;29.90;;;6.00;97.10;;;;;;5059281;28;20221;-64
2022/11/25 03:46:12;;;;;;;50.03;26.63;;;5.90;97.10;;;;;;5062385;28;20295;-64
2022/11/25 03:48:39;;;;;;;35.10;25.07;;;5.90;97.10;;;;;;5063615;28;20210;-64
2022/11/25 03:51:07;;;;;;;40.80;24.27;;;5.90;97.10;;;;;;5066375;28;20217;-64
2022/11/25 03:53:34;;;;;;;46.40;26.90;;;5.90;97.20;;;;;;5063831;28;20288;-64
2022/11/25 03:56:04;;;;;;;52.20;25.97;;;5.80;97.20;;;;;;5062385;28;20201;-64
2022/11/25 03:58:31;;;;;;;42.67;26.07;;;5.80;97.20;;;;;;5062230;28;20210;-64
2022/11/25 04:01:03;;;;;;;46.10;29.03;;;5.80;97.20;;;;;;5062996;28;20222;-64
2022/11/25 04:03:30;;;;;;;42.37;28.77;;;5.80;97.20;;;;;;5050406;28;20214;-64
2022/11/25 04:05:58;;;;;;;40.43;27.13;;;5.80;97.30;;;;;;5076289;28;20225;-64
2022/11/25 04:08:26;;;;;;;37.80;27.17;;;5.80;97.30;;;;;;5076672;28;20208;-64
2022/11/25 04:10:53;;;;;;;43.43;28.07;;;5.80;97.40;;;;;;5076201;28;20276;-64
2022/11/25 04:13:23;;;;;;;38.00;29.83;;;5.90;97.50;;;;;;5074437;28;20212;-64
2022/11/25 04:15:51;;;;;;;47.80;28.17;;;5.90;97.50;;;;;;5078841;28;20552;-64
2022/11/25 04:18:19;;;;;;;55.27;31.23;;;5.90;97.60;;;;;;5054508;28;20209;-65
2022/11/25 04:20:50;;;;;;;38.60;28.20;;;6.00;97.70;;;;;;5075613;28;20233;-64
2022/11/25 04:23:17;;;;;;;37.23;27.80;;;6.00;97.70;;;;;;5069190;28;20212;-64
2022/11/25 04:25:53;;;;;;;34.97;27.37;;;6.00;97.70;;;;;;5071815;28;20232;-64
2022/11/25 04:28:26;;;;;;;41.63;28.73;;;6.10;97.70;;;;;;5065422;28;20223;-64
2022/11/25 04:30:54;;;;;;;87.63;32.37;;;6.10;97.70;;;;;;5067270;28;20240;-64
2022/11/25 04:33:21;;;;;;;72.50;31.07;;;6.10;97.70;;;;;;5055416;28;20194;-64
2022/11/25 04:35:48;;;;;;;55.80;30.60;;;6.10;97.70;;;;;;5074961;28;20541;-64
2022/11/25 04:38:15;;;;;;;59.57;30.97;;;6.20;97.70;;;;;;5062842;28;20241;-64
2022/11/25 04:40:42;;;;;;;108.53;33.87;;;6.20;97.80;;;;;;5064910;28;20209;-64
2022/11/25 04:43:12;;;;;;;128.33;35.60;;;6.20;97.70;;;;;;5067380;28;20235;-64
2022/11/25 04:45:47;;;;;;;71.03;32.47;;;6.20;97.70;;;;;;5066634;28;20212;-64
2022/11/25 04:48:35;;;;;;;66.43;31.93;;;6.20;97.70;;;;;;5074813;28;20206;-64
2022/11/25 04:51:03;;;;;;;94.20;35.27;;;6.20;97.70;;;;;;5070529;28;20245;-64
2022/11/25 04:53:30;;;;;;;83.17;33.63;;;6.20;97.70;;;;;;5071771;28;20216;-64
2022/11/25 04:55:58;;;;;;;83.10;34.10;;;6.20;97.60;;;;;;5064237;28;20293;-65
2022/11/25 05:01:11;;;;;;;108.10;34.37;;;6.20;97.60;;;;;;5069555;28;20216;-64
2022/11/25 05:03:43;;;;;;;114.50;32.80;;;6.20;97.70;;;;;;5067345;28;20206;-64
2022/11/25 05:06:18;;;;;;;74.90;32.13;;;6.20;97.60;;;;;;5080811;28;20212;-64
2022/11/25 05:08:50;;;;;;;177.97;33.13;;;6.20;97.70;;;;;;5080724;28;20670;-64
2022/11/25 05:11:18;;;;;;;79.50;32.07;;;6.20;97.70;;;;;;5070435;28;20631;-64
2022/11/25 05:13:46;;;;;;;99.10;33.47;;;6.20;97.70;;;;;;5069870;28;20259;-64
2022/11/25 05:16:13;;;;;;;95.53;31.83;;;6.20;97.70;;;;;;5066980;28;20644;-64
2022/11/25 05:18:40;;;;;;;60.20;31.13;;;6.20;97.70;;;;;;5067695;28;20293;-64
2022/11/25 05:21:07;;;;;;;164.20;34.97;;;6.20;97.70;;;;;;5071463;28;20218;-64
2022/11/25 05:23:39;;;;;;;102.87;31.70;;;6.20;97.80;;;;;;5063602;28;20209;-65
2022/11/25 05:26:06;;;;;;;97.20;32.97;;;6.20;97.70;;;;;;5067504;28;20264;-64
2022/11/25 05:28:42;;;;;;;84.93;32.00;;;6.10;97.60;;;;;;5081600;28;20209;-64
2022/11/25 05:31:11;;;;;;;64.20;29.90;;;6.10;97.70;;;;;;5068635;28;20217;-65
2022/11/25 05:33:38;;;;;;;54.33;30.57;;;6.10;97.60;;;;;;5068023;28;20198;-64
2022/11/25 05:36:09;;;;;;;61.63;29.63;;;6.10;97.50;;;;;;5068117;28;20232;-64
2022/11/25 05:38:45;;;;;;;72.13;31.70;;;6.00;97.60;;;;;;5066272;28;20306;-64
2022/11/25 05:41:17;;;;;;;81.07;30.30;;;6.10;97.70;;;;;;5068774;28;20614;-64
2022/11/25 05:43:46;;;;;;;48.17;29.00;;;6.00;97.70;;;;;;5064934;28;20533;-64
2022/11/25 05:46:13;;;;;;;49.70;29.07;;;6.00;97.60;;;;;;5065264;28;20216;-64
2022/11/25 05:48:53;;;;;;;46.73;30.03;;;6.00;97.60;;;;;;5067229;28;20711;-65
2022/11/25 05:51:20;;;;;;;67.90;31.33;;;6.00;97.60;;;;;;5068913;28;20214;-64
2022/11/25 05:53:49;;;;;;;71.17;31.33;;;6.00;97.70;;;;;;5077965;28;20209;-64
2022/11/25 05:56:19;;;;;;;85.23;31.87;;;6.00;97.70;;;;;;5070358;28;20216;-64
2022/11/25 05:59:21;;;;;;;60.73;31.17;;;6.10;97.70;;;;;;5066646;28;20745;-64
2022/11/25 06:02:01;;;;;;;63.93;27.93;;;6.00;97.70;;;;;;5061066;28;20632;-64
2022/11/25 06:04:30;;;;;;;67.70;30.93;;;6.00;97.70;;;;;;5073502;28;20599;-64
2022/11/25 06:06:57;;;;;;;142.73;31.60;;;6.00;97.60;;;;;;5065258;28;20202;-64
2022/11/25 06:09:24;;;;;;;131.13;31.30;;;6.00;97.60;;;;;;5065910;28;20242;-64
2022/11/25 06:11:51;;;;;;;53.30;28.20;;;6.00;97.40;;;;;;5066056;28;20222;-64
2022/11/25 06:14:18;;;;;;;41.13;28.10;;;5.90;97.30;;;;;;5063831;28;20199;-64
2022/11/25 06:16:48;;;;;;;38.17;28.70;;;5.90;97.40;;;;;;5067091;28;20271;-64
2022/11/25 06:19:23;;;;;;;48.13;31.00;;;5.90;97.50;;;;;;5068160;28;20199;-64
2022/11/25 06:21:50;;;;;;;39.30;28.60;;;5.90;97.60;;;;;;5061018;28;20631;-64
2022/11/25 06:24:17;;;;;;;39.80;27.17;;;5.90;97.70;;;;;;5066949;28;20204;-64
2022/11/25 06:26:46;;;;;;;43.80;29.57;;;5.90;97.70;;;;;;5066131;28;20585;-64
2022/11/25 06:29:13;;;;;;;39.90;29.63;;;5.90;97.70;;;;;;5064721;28;20282;-64
2022/11/25 06:31:44;;;;;;;50.53;34.93;;;5.90;97.70;;;;;;5064666;28;20231;-64
2022/11/25 06:34:35;;;;;;;52.03;32.73;;;5.90;97.70;;;;;;5056724;28;20737;-64
2022/11/25 06:37:13;;;;;;;51.90;32.77;;;5.90;97.70;;;;;;5065711;28;20500;-64
2022/11/25 06:39:40;;;;;;;46.53;32.27;;;5.90;97.70;;;;;;5063407;28;20206;-65
2022/11/25 06:42:07;;;;;;;43.60;31.67;;;6.00;97.80;;;;;;5066629;28;20197;-64
2022/11/25 06:44:34;;;;;;;44.57;30.33;;;6.00;97.80;;;;;;5063547;28;20216;-64
2022/11/25 06:47:01;;;;;;;51.50;34.27;;;6.00;97.80;;;;;;5066891;28;20227;-65
2022/11/25 06:49:28;;;;;;;50.20;34.37;;;6.10;97.80;;;;;;5068010;28;20270;-64
2022/11/25 06:51:55;;;;;;;51.63;32.67;;;6.10;97.80;;;;;;5063930;28;20230;-64
2022/11/25 06:54:22;;;;;;;52.93;34.97;;;6.10;97.70;;;;;;5061512;28;20556;-64
2022/11/25 06:56:52;;;;;;;49.60;35.63;;;6.10;97.70;;;;;;5062059;28;20641;-64
2022/11/25 06:59:20;;;;;;;52.90;35.77;;;6.20;97.70;;;;;;5061254;28;20221;-64
2022/11/25 07:01:47;;;;;;;55.27;36.33;;;6.20;97.80;;;;;;5060871;28;20277;-64
2022/11/25 07:04:14;;;;;;;49.73;36.23;;;6.20;97.80;;;;;;5062430;28;20233;-64
2022/11/25 07:06:41;;;;;;;58.80;38.17;;;6.20;97.90;;;;;;5062711;28;20659;-64
2022/11/25 07:09:08;;;;;;;55.90;37.03;;;6.30;97.90;;;;;;5069477;28;20587;-64
2022/11/25 07:11:38;;;;;;;51.30;35.37;;;6.30;97.90;;;;;;5061088;28;20267;-64
2022/11/25 07:14:09;;;;;;;55.33;37.03;;;6.30;98.00;;;;;;5062972;28;20194;-64
2022/11/25 07:16:38;;;;;;;63.77;38.03;;;6.40;98.00;;;;;;5058532;28;20251;-65
2022/11/25 07:19:06;;;;;;;59.13;39.40;;;6.40;98.00;;;;;;5066154;28;20209;-64
2022/11/25 07:21:35;;;;;;;58.13;36.80;;;6.50;98.10;;;;;;5058704;28;20275;-64
2022/11/25 07:24:04;;;;;;;68.27;40.10;;;6.50;98.00;;;;;;5060795;28;20201;-64
2022/11/25 07:26:34;;;;;;;68.27;38.87;;;6.50;98.00;;;;;;5060072;28;20206;-64
2022/11/25 07:29:03;;;;;;;69.03;38.47;;;6.60;98.00;;;;;;5064065;28;20190;-64
2022/11/25 07:31:39;;;;;;;99.67;40.80;;;6.60;98.00;;;;;;5060854;28;20213;-64
2022/11/25 07:34:14;;;;;;;63.73;38.83;;;6.70;97.90;;;;;;5063588;28;20201;-64
2022/11/25 07:36:41;;;;;;;65.70;39.87;;;6.70;97.90;;;;;;5062178;28;20197;-64
2022/11/25 07:39:12;;;;;;;96.77;39.43;;;6.80;98.30;;;;;;5056922;28;20285;-64
2022/11/25 07:41:42;;;;;;;67.07;37.57;;;6.80;98.30;;;;;;5062177;28;20198;-64
2022/11/25 07:44:12;;;;;;;61.60;36.73;;;6.90;97.90;;;;;;5060339;28;20201;-64
2022/11/25 07:46:49;;;;;;;102.20;40.63;;;6.90;97.80;;;;;;5064518;28;20218;-64
2022/11/25 07:49:20;;;;;;;66.57;36.50;;;6.90;97.80;;;;;;5061875;28;20230;-64
2022/11/25 07:51:53;;;;;;;97.30;39.90;;;6.90;97.70;;;;;;5068713;28;20244;-64
2022/11/25 07:54:21;;;;;;;104.73;39.97;;;6.90;97.70;;;;;;5063693;28;20599;-64
2022/11/25 07:56:49;;;;;;;63.20;37.20;;;6.90;97.70;;;;;;5060976;28;20193;-64
2022/11/25 07:59:19;;;;;;;74.67;37.27;;;6.90;97.80;;;;;;5069548;28;20213;-64
2022/11/25 08:01:52;;;;;;;124.00;41.50;;;7.00;97.80;;;;;;5058032;28;20205;-64
2022/11/25 08:04:19;;;;;;;70.73;38.37;;;7.00;97.80;;;;;;5059061;28;20278;-64
2022/11/25 08:06:49;;;;;;;84.57;39.00;;;7.10;97.90;;;;;;5056651;28;20687;-64
2022/11/25 08:09:19;;;;;;;109.37;39.97;;;7.10;97.90;;;;;;5059279;28;20579;-64
2022/11/25 08:11:47;;;;;;;108.47;42.57;;;7.20;97.90;;;;;;5064961;28;20545;-64
2022/11/25 08:14:15;;;;;;;79.07;38.93;;;7.30;97.80;;;;;;5061944;28;20568;-64
2022/11/25 08:16:43;;;;;;;64.13;40.13;;;7.40;97.80;;;;;;5062166;28;20643;-64
2022/11/25 08:19:13;;;;;;;64.70;41.53;;;7.50;97.80;;;;;;5065691;28;20236;-64
2022/11/25 08:21:41;;;;;;;62.90;41.17;;;7.70;97.70;;;;;;5057833;28;20266;-64
2022/11/25 08:24:14;;;;;;;56.63;39.00;;;7.80;97.70;;;;;;5058188;28;20259;-64
2022/11/25 08:26:42;;;;;;;58.93;38.50;;;7.80;97.60;;;;;;5059640;28;20644;-64
2022/11/25 08:29:13;;;;;;;55.53;39.97;;;8.00;97.60;;;;;;5063007;28;20198;-64
2022/11/25 08:31:41;;;;;;;57.57;39.33;;;8.00;97.40;;;;;;5060540;28;20215;-64
2022/11/25 08:34:14;;;;;;;55.93;39.60;;;8.10;97.30;;;;;;5059249;28;20205;-64
2022/11/25 08:36:42;;;;;;;56.47;41.03;;;8.20;97.30;;;;;;5070558;28;20556;-64
2022/11/25 08:39:14;;;;;;;53.03;38.27;;;8.30;97.30;;;;;;5062103;28;20652;-64
2022/11/25 08:42:03;;;;;;;49.03;35.63;;;8.40;97.30;;;;;;5052945;28;20214;-64
2022/11/25 08:44:30;;;;;;;49.13;38.77;;;8.50;97.20;;;;;;5062118;28;20530;-64
2022/11/25 08:46:57;;;;;;;50.93;39.10;;;8.50;97.00;;;;;;5061943;28;20202;-64
2022/11/25 08:49:25;;;;;;;49.10;38.10;;;8.60;97.00;;;;;;5063054;28;20199;-64
2022/11/25 08:51:52;;;;;;;50.63;39.67;;;8.60;97.00;;;;;;5061226;28;20299;-64
2022/11/25 08:54:19;;;;;;;50.73;40.47;;;8.70;96.90;;;;;;5062867;28;20198;-64
2022/11/25 08:56:47;;;;;;;55.23;38.73;;;8.80;96.90;;;;;;5062305;28;20199;-64
2022/11/25 08:59:14;;;;;;;61.27;45.27;;;8.90;96.90;;;;;;5060402;28;20269;-64
2022/11/25 09:01:40;;;;;;;61.67;45.57;;;9.00;96.80;;;;;;5070442;28;20266;-64
2022/11/25 09:04:08;;;;;;;65.87;49.20;;;9.10;96.80;;;;;;5067333;28;20251;-64
2022/11/25 09:06:35;;;;;;;60.83;47.60;;;9.20;96.70;;;;;;5066990;28;20213;-64
2022/11/25 09:09:04;;;;;;;61.83;46.77;;;9.30;96.50;;;;;;5068173;28;20274;-64
2022/11/25 09:11:32;;;;;;;58.03;44.23;;;9.40;96.40;;;;;;5065313;28;20210;-64
2022/11/25 09:13:59;;;;;;;54.17;39.63;;;9.50;96.40;;;;;;5071951;28;20187;-64
2022/11/25 09:16:26;;;;;;;57.57;39.87;;;9.60;96.20;;;;;;5065296;28;20658;-64
2022/11/25 09:18:54;;;;;;;50.47;40.83;;;9.60;96.00;;;;;;5067286;28;20211;-64
2022/11/25 09:21:23;;;;;;;52.20;39.47;;;9.70;95.80;;;;;;5067083;28;20205;-64
2022/11/25 09:23:52;;;;;;;50.57;40.30;;;9.80;95.70;;;;;;5062492;28;20642;-64
2022/11/25 09:26:26;;;;;;;48.93;37.37;;;9.90;95.40;;;;;;5062622;28;20535;-64
2022/11/25 09:28:54;;;;;;;52.20;38.27;;;9.90;95.10;;;;;;5064514;28;20202;-64
2022/11/25 09:31:22;;;;;;;44.90;37.40;;;10.00;95.10;;;;;;5070398;28;20220;-64
2022/11/25 09:33:50;;;;;;;46.47;35.20;;;10.00;95.10;;;;;;5062175;28;20192;-64
2022/11/25 09:36:19;;;;;;;40.70;33.53;;;10.10;95.00;;;;;;5062940;28;20201;-64
2022/11/25 09:38:46;;;;;;;43.57;34.87;;;10.20;94.80;;;;;;5065330;28;20232;-64
2022/11/25 09:47:40;;;;;;;45.47;34.33;;;10.10;94.10;;;;;;5065932;28;20218;-64
2022/11/25 09:50:30;;;;;;;41.10;32.93;;;10.10;94.00;;;;;;5066175;28;20636;-64
2022/11/25 09:53:18;;;;;;;38.93;32.70;;;10.10;93.90;;;;;;5067379;28;20199;-64
2022/11/25 09:55:48;;;;;;;45.97;34.57;;;10.10;94.20;;;;;;5079236;28;20559;-64
2022/11/25 09:58:38;;;;;;;48.13;37.07;;;10.20;94.00;;;;;;5076751;28;20207;-64
2022/11/25 10:01:12;;;;;;;45.97;37.20;;;10.40;94.00;;;;;;5059591;28;20201;-64
2022/11/25 10:03:45;;;;;;;53.50;37.00;;;10.50;94.00;;;;;;5062848;28;20207;-64
2022/11/25 10:06:18;;;;;;;47.57;36.23;;;10.60;93.80;;;;;;5060183;28;20200;-64
2022/11/25 10:08:51;;;;;;;48.87;38.33;;;10.60;93.50;;;;;;5062973;28;20238;-64
2022/11/25 10:11:27;;;;;;;44.90;35.97;;;10.70;93.30;;;;;;5066236;28;20283;-64
2022/11/25 10:13:57;;;;;;;46.00;36.43;;;10.80;93.10;;;;;;5063290;28;20254;-64
2022/11/25 10:17:02;;;;;;;44.87;36.90;;;10.80;93.00;;;;;;5069327;28;20203;-64
2022/11/25 10:20:11;;;;;;;44.30;36.07;;;10.80;93.00;;;;;;5063791;28;20230;-64
2022/11/25 10:22:44;;;;;;;45.43;35.53;;;10.80;93.00;;;;;;5061077;28;20204;-64
2022/11/25 10:25:14;;;;;;;46.23;35.73;;;10.90;93.00;;;;;;5061406;28;20205;-64
2022/11/25 10:28:00;;;;;;;42.57;35.50;;;11.00;93.00;;;;;;5061597;28;20218;-64
2022/11/25 10:30:56;;;;;;;43.77;35.57;;;11.00;93.00;;;;;;5063995;28;20204;-64
2022/11/25 10:33:35;;;;;;;52.07;38.10;;;11.10;92.90;;;;;;5068250;28;20209;-64
2022/11/25 10:36:27;;;;;;;55.40;40.53;;;11.20;92.80;;;;;;5063117;28;20650;-64
2022/11/25 10:39:06;;;;;;;48.20;38.17;;;11.30;92.70;;;;;;5064197;28;20198;-64
2022/11/25 10:41:43;;;;;;;49.70;38.23;;;11.40;92.60;;;;;;5064763;28;20512;-64
2022/11/25 10:44:23;;;;;;;49.47;38.23;;;11.50;92.40;;;;;;5062254;28;20201;-64
2022/11/25 10:47:01;;;;;;;50.40;38.50;;;11.60;92.20;;;;;;5065814;28;20204;-64
2022/11/25 10:50:07;;;;;;;51.77;39.43;;;11.70;92.00;;;;;;5066600;28;20262;-64
2022/11/25 10:52:45;;;;;;;54.97;39.67;;;11.80;91.70;;;;;;5060198;28;20215;-64
2022/11/25 10:55:16;;;;;;;50.10;38.57;;;11.80;91.60;;;;;;5061244;28;20194;-64
2022/11/25 10:57:43;;;;;;;48.63;38.80;;;11.90;91.50;;;;;;5063022;28;20189;-64
2022/11/25 11:00:30;;;;;;;48.33;35.57;;;11.90;91.30;;;;;;5065366;28;20617;-64
2022/11/25 11:03:11;;;;;;;42.13;29.20;;;12.00;91.20;;;;;;5059544;28;20202;-64
2022/11/25 11:05:46;;;;;;;33.37;28.00;;;12.00;91.10;;;;;;5061821;28;20217;-64
2022/11/25 11:08:27;;;;;;;38.90;29.73;;;12.00;90.70;;;;;;5067274;28;20212;-64
2022/11/25 11:11:29;;;;;;;36.93;30.20;;;12.00;90.60;;;;;;5063922;28;20234;-64
2022/11/25 11:14:11;;;;;;;38.23;30.43;;;12.00;90.80;;;;;;5056825;28;20212;-64
2022/11/25 11:16:44;;;;;;;41.20;31.93;;;12.00;90.80;;;;;;5065382;28;20215;-64
2022/11/25 11:19:40;;;;;;;39.53;31.37;;;12.10;90.90;;;;;;5063330;28;20662;-64
2022/11/25 11:22:15;;;;;;;38.57;31.23;;;12.20;91.00;;;;;;5063913;28;20675;-64
2022/11/25 11:24:42;;;;;;;36.53;29.43;;;12.30;91.00;;;;;;5061387;28;20555;-64
2022/11/25 11:27:20;;;;;;;36.37;31.17;;;12.40;91.00;;;;;;5065434;28;20213;-64
2022/11/25 11:30:06;;;;;;;41.37;31.47;;;12.50;90.90;;;;;;5061773;28;20203;-64
2022/11/25 11:32:34;;;;;;;46.93;35.20;;;12.50;90.80;;;;;;5060514;28;20568;-64
2022/11/25 11:35:12;;;;;;;43.77;32.70;;;12.60;90.60;;;;;;5062614;28;20208;-64
2022/11/25 11:37:46;;;;;;;41.80;31.70;;;12.60;90.50;;;;;;5062718;28;20197;-64
2022/11/25 11:40:25;;;;;;;40.47;31.57;;;12.70;90.40;;;;;;5061633;28;20528;-64
2022/11/25 11:43:11;;;;;;;38.53;31.13;;;12.70;90.30;;;;;;5064748;28;20213;-64
2022/11/25 11:45:53;;;;;;;41.87;31.97;;;12.80;90.00;;;;;;5064596;28;20216;-64
2022/11/25 11:48:25;;;;;;;42.73;32.33;;;12.70;89.60;;;;;;5063390;28;20266;-64
2022/11/25 11:51:27;;;;;;;42.80;33.10;;;12.70;89.70;;;;;;5062678;28;20202;-64
2022/11/25 11:54:09;;;;;;;38.60;33.40;;;12.70;90.00;;;;;;5058546;28;20198;-64
2022/11/25 11:56:50;;;;;;;41.67;31.60;;;12.70;90.00;;;;;;5063647;28;20205;-64
2022/11/25 11:59:27;;;;;;;42.87;32.73;;;12.70;90.00;;;;;;5063861;28;20203;-64
2022/11/25 12:02:15;;;;;;;38.07;31.80;;;12.80;90.00;;;;;;5059310;28;20980;-64
2022/11/25 12:04:54;;;;;;;39.63;32.03;;;12.80;90.10;;;;;;5057944;28;20215;-64
2022/11/25 12:07:36;;;;;;;37.93;29.33;;;12.80;90.10;;;;;;5058201;28;20632;-64
2022/11/25 12:10:42;;;;;;;33.53;28.53;;;12.80;90.20;;;;;;5063790;28;20323;-64
2022/11/25 12:13:18;;;;;;;33.30;26.37;;;12.80;90.30;;;;;;5062821;28;20238;-64
2022/11/25 12:15:45;;;;;;;31.97;25.97;;;12.90;90.30;;;;;;5061372;28;20207;-64
2022/11/25 12:18:18;;;;;;;35.40;24.73;;;12.90;90.20;;;;;;5066338;28;20214;-64
2022/11/25 12:21:08;;;;;;;28.20;25.00;;;12.90;90.10;;;;;;5060433;28;20205;-64
2022/11/25 12:23:43;;;;;;;29.47;23.57;;;12.90;90.10;;;;;;5062449;28;20266;-64
2022/11/25 12:26:18;;;;;;;30.10;23.93;;;12.90;90.00;;;;;;5072260;28;20212;-64
2022/11/25 12:28:56;;;;;;;24.70;21.57;;;12.90;90.10;;;;;;5068599;28;20209;-64
2022/11/25 12:31:26;;;;;;;26.80;22.00;;;12.90;90.10;;;;;;5067066;28;20519;-64
2022/11/25 12:33:53;;;;;;;26.90;20.60;;;12.90;90.00;;;;;;5068938;28;20265;-64
2022/11/25 12:36:42;;;;;;;24.93;21.40;;;12.90;90.00;;;;;;5063179;28;20203;-64
2022/11/25 12:39:39;;;;;;;27.90;22.03;;;12.90;90.00;;;;;;5073043;28;20197;-64
2022/11/25 12:42:22;;;;;;;24.40;20.83;;;12.90;90.00;;;;;;5062153;28;20202;-64
2022/11/25 12:44:57;;;;;;;24.27;21.00;;;12.90;90.00;;;;;;5063485;28;20204;-64
2022/11/25 12:47:25;;;;;;;27.70;21.30;;;13.00;90.00;;;;;;5063738;28;20208;-64
2022/11/25 12:49:54;;;;;;;29.73;21.93;;;13.00;89.90;;;;;;5066349;28;20212;-64
2022/11/25 12:52:49;;;;;;;24.73;20.70;;;13.00;89.50;;;;;;5063087;28;20217;-64
2022/11/25 12:55:26;;;;;;;23.87;19.10;;;13.00;89.40;;;;;;5066054;28;20202;-64
2022/11/25 12:58:27;;;;;;;24.30;20.10;;;13.00;89.20;;;;;;5067136;28;20606;-64
2022/11/25 13:01:29;;;;;;;22.90;17.83;;;13.00;88.80;;;;;;5071315;28;20197;-64
2022/11/25 13:04:31;;;;;;;24.20;19.03;;;13.00;88.90;;;;;;5061597;28;20194;-64
2022/11/25 13:07:28;;;;;;;25.50;18.23;;;13.00;89.20;;;;;;5065921;28;20196;-64
2022/11/25 13:10:24;;;;;;;23.63;18.93;;;12.90;88.50;;;;;;5064352;28;20239;-64
2022/11/25 13:13:24;;;;;;;27.03;18.03;;;12.90;89.00;;;;;;5068631;28;20232;-64
2022/11/25 13:15:53;;;;;;;21.80;17.73;;;12.90;88.90;;;;;;5063069;28;20279;-64